createdAt,value
2018-07-03T00:00:48.805Z,21.56
2018-07-03T00:03:17.881Z,21.63
2018-07-03T00:05:47.009Z,21.55
2018-07-03T00:08:16.064Z,21.45
2018-07-03T00:10:45.100Z,21.34
2018-07-03T00:13:14.161Z,21.34
2018-07-03T00:15:43.673Z,21.37
2018-07-03T00:18:12.868Z,21.25
2018-07-03T00:20:42.042Z,21.40
2018-07-03T00:23:11.117Z,21.59
2018-07-03T00:25:40.154Z,21.48
2018-07-03T00:28:09.218Z,21.33
2018-07-03T00:30:38.345Z,21.44
2018-07-03T00:33:07.651Z,21.38
2018-07-03T00:35:36.774Z,21.28
2018-07-03T00:38:06.240Z,21.01
2018-07-03T00:40:35.419Z,20.90
2018-07-03T00:43:04.520Z,20.98
2018-07-03T00:45:33.590Z,20.77
2018-07-03T00:48:02.691Z,20.73
2018-07-03T00:50:38.305Z,20.78
2018-07-03T00:53:07.341Z,20.87
2018-07-03T00:55:37.445Z,20.75
2018-07-03T00:58:06.533Z,20.65
2018-07-03T01:00:36.197Z,20.41
2018-07-03T01:03:05.467Z,20.31
2018-07-03T01:05:34.656Z,20.32
2018-07-03T01:08:03.695Z,20.29
2018-07-03T01:10:32.754Z,20.32
2018-07-03T01:13:01.809Z,20.21
2018-07-03T01:15:30.897Z,20.27
2018-07-03T01:17:59.970Z,20.23
2018-07-03T01:20:29.105Z,20.18
2018-07-03T01:22:58.166Z,20.12
2018-07-03T01:25:27.254Z,20.22
2018-07-03T01:27:56.322Z,20.15
2018-07-03T01:30:25.397Z,19.95
2018-07-03T01:32:54.456Z,19.86
2018-07-03T01:35:23.520Z,19.91
2018-07-03T01:37:52.567Z,19.77
2018-07-03T01:40:21.649Z,19.81
2018-07-03T01:42:50.867Z,19.83
2018-07-03T01:45:20.913Z,19.86
2018-07-03T01:47:50.062Z,19.68
2018-07-03T01:50:19.299Z,19.56
2018-07-03T01:52:48.367Z,19.51
2018-07-03T01:55:17.989Z,19.40
2018-07-03T01:57:47.053Z,19.38
2018-07-03T02:00:16.237Z,18.94
2018-07-03T02:02:45.288Z,19.24
2018-07-03T02:05:14.368Z,19.15
2018-07-03T02:07:43.421Z,18.98
2018-07-03T02:10:12.473Z,19.18
2018-07-03T02:12:41.613Z,19.03
2018-07-03T02:15:10.649Z,18.63
2018-07-03T02:17:39.730Z,18.73
2018-07-03T02:20:08.830Z,18.83
2018-07-03T02:22:37.937Z,18.85
2018-07-03T02:25:07.034Z,18.83
2018-07-03T02:27:36.081Z,18.77
2018-07-03T02:30:05.585Z,18.81
2018-07-03T02:32:34.682Z,18.75
2018-07-03T02:35:03.796Z,18.74
2018-07-03T02:37:32.836Z,18.65
2018-07-03T02:40:01.896Z,18.72
2018-07-03T02:42:30.940Z,18.76
2018-07-03T02:44:59.994Z,18.74
2018-07-03T02:47:29.026Z,18.69
2018-07-03T02:49:58.127Z,18.67
2018-07-03T02:52:27.165Z,18.61
2018-07-03T02:54:56.236Z,18.32
2018-07-03T02:57:25.278Z,18.27
2018-07-03T02:59:54.405Z,18.30
2018-07-03T03:02:23.444Z,18.32
2018-07-03T03:04:52.510Z,18.24
2018-07-03T03:07:21.567Z,18.09
2018-07-03T03:09:50.641Z,18.05
2018-07-03T03:12:19.736Z,18.05
2018-07-03T03:14:50.025Z,18.14
2018-07-03T03:17:20.323Z,18.06
2018-07-03T03:19:49.429Z,18.05
2018-07-03T03:22:18.466Z,18.13
2018-07-03T03:24:47.469Z,17.90
2018-07-03T03:27:16.576Z,18.07
2018-07-03T03:29:45.609Z,18.06
2018-07-03T03:32:14.675Z,17.89
2018-07-03T03:34:43.745Z,17.81
2018-07-03T03:37:12.822Z,17.90
2018-07-03T03:39:41.875Z,17.80
2018-07-03T03:42:10.980Z,17.65
2018-07-03T03:44:40.531Z,17.63
2018-07-03T03:47:09.634Z,17.71
2018-07-03T03:49:38.693Z,17.75
2018-07-03T03:52:07.773Z,17.81
2018-07-03T03:54:37.126Z,17.72
2018-07-03T03:57:06.447Z,17.65
2018-07-03T03:59:35.562Z,17.67
2018-07-03T04:02:07.740Z,17.62
2018-07-03T04:04:37.406Z,17.59
2018-07-03T04:07:06.637Z,17.71
2018-07-03T04:09:35.689Z,17.66
2018-07-03T04:12:04.776Z,17.58
2018-07-03T04:14:33.958Z,17.69
2018-07-03T04:17:03.029Z,17.67
2018-07-03T04:19:32.214Z,17.57
2018-07-03T04:22:01.310Z,17.35
2018-07-03T04:24:30.357Z,17.14
2018-07-03T04:26:59.394Z,17.41
2018-07-03T04:29:28.584Z,17.35
2018-07-03T04:31:57.608Z,17.30
2018-07-03T04:34:26.682Z,17.51
2018-07-03T04:36:55.697Z,17.59
2018-07-03T04:39:25.206Z,17.64
2018-07-03T04:41:54.453Z,17.74
2018-07-03T04:44:23.499Z,17.48
2018-07-03T04:46:52.578Z,17.69
2018-07-03T04:49:21.589Z,17.71
2018-07-03T04:51:50.655Z,17.88
2018-07-03T04:54:19.924Z,17.98
2018-07-03T04:56:49.059Z,17.82
2018-07-03T04:59:18.486Z,18.27
2018-07-03T05:01:47.515Z,18.36
2018-07-03T05:04:16.938Z,18.34
2018-07-03T05:06:46.284Z,18.40
2018-07-03T05:09:15.296Z,18.47
2018-07-03T05:11:44.673Z,18.55
2018-07-03T05:14:13.738Z,18.64
2018-07-03T05:16:42.806Z,18.66
2018-07-03T05:19:11.844Z,18.76
2018-07-03T05:21:41.037Z,18.95
2018-07-03T05:24:10.077Z,19.05
2018-07-03T05:26:39.174Z,18.87
2018-07-03T05:29:08.214Z,18.87
2018-07-03T05:31:37.697Z,18.96
2018-07-03T05:34:07.162Z,19.08
2018-07-03T05:36:36.341Z,19.15
2018-07-03T05:39:08.034Z,19.46
2018-07-03T05:41:37.493Z,19.46
2018-07-03T05:44:06.497Z,19.44
2018-07-03T05:46:35.616Z,19.51
2018-07-03T05:49:04.818Z,19.49
2018-07-03T05:51:34.446Z,18.74
2018-07-03T05:54:04.377Z,19.58
2018-07-03T05:56:33.470Z,19.75
2018-07-03T05:59:02.605Z,19.92
2018-07-03T06:01:32.013Z,20.11
2018-07-03T06:04:01.130Z,20.14
2018-07-03T06:06:30.839Z,18.13
2018-07-03T06:08:59.952Z,20.42
2018-07-03T06:11:29.009Z,20.32
2018-07-03T06:13:58.082Z,20.28
2018-07-03T06:16:27.176Z,20.37
2018-07-03T06:18:56.414Z,20.46
2018-07-03T06:21:25.388Z,20.46
2018-07-03T06:23:55.067Z,20.19
2018-07-03T06:26:24.094Z,20.36
2018-07-03T06:28:53.193Z,20.60
2018-07-03T06:31:22.241Z,20.68
2018-07-03T06:33:51.349Z,20.79
2018-07-03T06:36:20.429Z,20.83
2018-07-03T06:38:49.721Z,20.90
2018-07-03T06:41:18.846Z,21.01
2018-07-03T06:43:48.043Z,21.10
2018-07-03T06:46:17.148Z,21.19
2018-07-03T06:48:46.421Z,21.26
2018-07-03T06:51:15.645Z,21.36
2018-07-03T06:53:44.693Z,21.51
2018-07-03T06:56:13.819Z,21.70
2018-07-03T06:58:42.942Z,21.89
2018-07-03T07:01:12.011Z,22.07
2018-07-03T07:03:41.401Z,22.21
2018-07-03T07:06:10.517Z,22.40
2018-07-03T07:08:39.774Z,22.40
2018-07-03T07:11:08.703Z,22.47
2018-07-03T07:13:38.088Z,22.67
2018-07-03T07:16:07.142Z,22.74
2018-07-03T07:18:36.365Z,22.86
2018-07-03T07:21:05.460Z,23.01
2018-07-03T07:23:34.751Z,23.05
2018-07-03T07:26:03.784Z,22.96
2018-07-03T07:28:32.897Z,23.14
2018-07-03T07:31:02.125Z,23.33
2018-07-03T07:33:31.166Z,23.33
2018-07-03T07:36:00.324Z,23.05
2018-07-03T07:38:29.597Z,23.62
2018-07-03T07:40:58.706Z,23.82
2018-07-03T07:43:27.840Z,23.97
2018-07-03T07:45:59.296Z,24.09
2018-07-03T07:48:28.352Z,24.20
2018-07-03T07:50:57.429Z,24.19
2018-07-03T07:53:26.604Z,24.19
2018-07-03T07:55:55.863Z,24.38
2018-07-03T07:58:24.975Z,24.56
2018-07-03T08:00:54.172Z,24.62
2018-07-03T08:03:23.415Z,24.59
2018-07-03T08:05:52.531Z,24.71
2018-07-03T08:08:21.626Z,24.78
2018-07-03T08:10:50.722Z,24.66
2018-07-03T08:13:19.832Z,24.51
2018-07-03T08:15:48.932Z,24.36
2018-07-03T08:18:18.065Z,24.38
2018-07-03T08:20:47.166Z,24.08
2018-07-03T08:23:16.293Z,24.55
2018-07-03T08:25:45.377Z,24.75
2018-07-03T08:28:14.428Z,24.89
2018-07-03T08:30:43.634Z,24.87
2018-07-03T08:33:13.857Z,25.13
2018-07-03T08:35:43.070Z,25.34
2018-07-03T08:38:12.373Z,25.47
2018-07-03T08:40:41.774Z,25.56
2018-07-03T08:43:10.828Z,25.61
2018-07-03T08:45:39.902Z,25.60
2018-07-03T08:48:08.952Z,25.79
2018-07-03T08:50:38.062Z,25.93
2018-07-03T08:53:07.183Z,26.11
2018-07-03T08:55:36.364Z,26.28
2018-07-03T08:58:05.554Z,26.43
2018-07-03T09:00:35.255Z,26.55
2018-07-03T09:03:04.486Z,26.66
2018-07-03T09:05:33.534Z,26.81
2018-07-03T09:08:02.613Z,27.00
2018-07-03T09:10:31.662Z,26.99
2018-07-03T09:13:00.830Z,26.95
2018-07-03T09:15:30.250Z,26.85
2018-07-03T09:17:59.343Z,26.96
2018-07-03T09:20:28.504Z,27.04
2018-07-03T09:22:57.553Z,27.09
2018-07-03T09:25:26.641Z,27.28
2018-07-03T09:27:55.820Z,27.41
2018-07-03T09:30:24.920Z,27.58
2018-07-03T09:32:54.090Z,27.52
2018-07-03T09:35:23.221Z,27.56
2018-07-03T09:37:52.405Z,27.48
2018-07-03T09:40:21.534Z,27.28
2018-07-03T09:42:51.686Z,27.50
2018-07-03T09:45:20.720Z,27.50
2018-07-03T09:47:49.842Z,27.78
2018-07-03T09:50:18.905Z,27.49
2018-07-03T09:52:48.007Z,27.73
2018-07-03T09:55:17.097Z,28.03
2018-07-03T09:57:46.653Z,28.00
2018-07-03T10:00:20.206Z,28.16
2018-07-03T10:02:49.916Z,28.01
2018-07-03T10:05:19.057Z,28.03
2018-07-03T10:07:48.541Z,28.18
2018-07-03T10:10:17.693Z,28.43
2018-07-03T10:12:46.738Z,28.50
2018-07-03T10:15:15.843Z,28.66
2018-07-03T10:17:44.945Z,28.65
2018-07-03T10:20:14.117Z,28.78
2018-07-03T10:22:43.326Z,28.44
2018-07-03T10:25:12.425Z,28.33
2018-07-03T10:27:41.632Z,28.28
2018-07-03T10:30:10.685Z,28.29
2018-07-03T10:32:39.833Z,28.62
2018-07-03T10:35:08.998Z,28.98
2018-07-03T10:37:38.077Z,28.86
2018-07-03T10:40:07.264Z,28.58
2018-07-03T10:42:36.363Z,28.41
2018-07-03T10:45:05.563Z,28.69
2018-07-03T10:47:34.606Z,28.69
2018-07-03T10:50:03.725Z,28.78
2018-07-03T10:52:32.822Z,28.82
2018-07-03T10:55:01.871Z,29.12
2018-07-03T10:57:31.006Z,29.51
2018-07-03T11:00:00.110Z,29.74
2018-07-03T11:02:29.149Z,29.92
2018-07-03T11:04:58.277Z,30.06
2018-07-03T11:07:27.314Z,30.28
2018-07-03T11:09:56.381Z,30.28
2018-07-03T11:12:26.601Z,30.42
2018-07-03T11:14:55.717Z,30.28
2018-07-03T11:17:24.962Z,30.31
2018-07-03T11:19:54.275Z,30.30
2018-07-03T11:22:23.424Z,30.33
2018-07-03T11:24:52.481Z,30.28
2018-07-03T11:27:21.538Z,30.11
2018-07-03T11:29:51.678Z,30.21
2018-07-03T11:32:20.866Z,30.35
2018-07-03T11:34:50.034Z,30.70
2018-07-03T11:37:20.050Z,30.68
2018-07-03T11:39:49.971Z,30.73
2018-07-03T11:42:19.334Z,30.76
2018-07-03T11:44:48.403Z,31.07
2018-07-03T11:47:17.580Z,31.42
2018-07-03T11:49:46.598Z,31.65
2018-07-03T11:52:15.709Z,31.53
2018-07-03T11:54:44.815Z,31.25
2018-07-03T11:57:13.969Z,31.74
2018-07-03T11:59:43.035Z,32.04
2018-07-03T12:02:12.199Z,32.16
2018-07-03T12:04:41.243Z,32.13
2018-07-03T12:07:10.392Z,31.98
2018-07-03T12:09:39.489Z,32.04
2018-07-03T12:12:08.619Z,32.26
2018-07-03T12:14:38.911Z,32.38
2018-07-03T12:17:08.656Z,32.27
2018-07-03T12:19:38.278Z,31.93
2018-07-03T12:22:07.356Z,31.95
2018-07-03T12:24:36.381Z,32.20
2018-07-03T12:27:05.529Z,32.46
2018-07-03T12:29:34.626Z,32.33
2018-07-03T12:32:03.711Z,32.15
2018-07-03T12:34:32.847Z,32.49
2018-07-03T12:37:02.032Z,32.72
2018-07-03T12:39:31.637Z,32.63
2018-07-03T12:42:00.741Z,32.98
2018-07-03T12:44:29.902Z,32.84
2018-07-03T12:46:59.026Z,32.92
2018-07-03T12:49:28.290Z,33.11
2018-07-03T12:51:57.452Z,33.14
2018-07-03T12:54:26.641Z,32.98
2018-07-03T12:56:55.716Z,33.16
2018-07-03T12:59:25.229Z,33.46
2018-07-03T13:01:54.400Z,33.39
2018-07-03T13:04:23.442Z,33.49
2018-07-03T13:06:52.615Z,33.53
2018-07-03T13:09:21.660Z,33.79
2018-07-03T13:11:50.731Z,33.57
2018-07-03T13:14:19.802Z,33.71
2018-07-03T13:16:48.933Z,33.69
2018-07-03T13:19:18.057Z,33.72
2018-07-03T13:21:47.165Z,33.30
2018-07-03T13:24:16.283Z,33.74
2018-07-03T13:26:45.336Z,33.90
2018-07-03T13:29:14.442Z,34.22
2018-07-03T13:31:43.622Z,34.05
2018-07-03T13:34:12.768Z,34.60
2018-07-03T13:36:41.821Z,33.77
2018-07-03T13:39:11.575Z,33.35
2018-07-03T13:41:40.725Z,33.43
2018-07-03T13:44:10.634Z,33.55
2018-07-03T13:46:39.693Z,33.67
2018-07-03T13:49:08.767Z,34.28
2018-07-03T13:51:37.842Z,33.72
2018-07-03T13:54:06.965Z,33.68
2018-07-03T13:56:36.134Z,34.20
2018-07-03T13:59:05.272Z,34.33
2018-07-03T14:01:34.313Z,34.42
2018-07-03T14:04:03.571Z,34.65
2018-07-03T14:06:32.678Z,34.70
2018-07-03T14:09:01.859Z,34.89
2018-07-03T14:11:30.950Z,34.60
2018-07-03T14:14:00.083Z,34.74
2018-07-03T14:16:29.249Z,35.42
2018-07-03T14:18:58.482Z,36.01
2018-07-03T14:21:27.628Z,35.41
2018-07-03T14:23:56.688Z,35.10
2018-07-03T14:26:25.778Z,35.66
2018-07-03T14:28:54.851Z,35.38
2018-07-03T14:31:24.130Z,34.74
2018-07-03T14:33:53.204Z,34.63
2018-07-03T14:36:22.635Z,33.77
2018-07-03T14:38:51.725Z,33.28
2018-07-03T14:41:20.811Z,33.60
2018-07-03T14:43:49.912Z,33.66
2018-07-03T14:46:19.189Z,34.21
2018-07-03T14:48:48.261Z,34.68
2018-07-03T14:51:18.295Z,34.61
2018-07-03T14:53:47.318Z,35.44
2018-07-03T14:56:16.426Z,35.98
2018-07-03T14:58:45.531Z,36.24
2018-07-03T15:01:14.726Z,35.32
2018-07-03T15:03:44.375Z,35.50
2018-07-03T15:06:13.440Z,35.72
2018-07-03T15:08:42.587Z,35.70
2018-07-03T15:11:11.700Z,35.94
2018-07-03T15:13:40.755Z,35.43
2018-07-03T15:16:10.283Z,35.48
2018-07-03T15:18:44.571Z,35.48
2018-07-03T15:21:13.666Z,36.04
2018-07-03T15:23:42.782Z,36.10
2018-07-03T15:26:11.846Z,36.38
2018-07-03T15:28:40.927Z,36.31
2018-07-03T15:31:10.389Z,36.35
2018-07-03T15:33:39.439Z,36.56
2018-07-03T15:36:08.506Z,36.76
2018-07-03T15:38:37.587Z,36.78
2018-07-03T15:41:06.774Z,35.83
2018-07-03T15:43:35.946Z,35.88
2018-07-03T15:46:05.378Z,36.42
2018-07-03T15:48:34.498Z,35.69
2018-07-03T15:51:03.853Z,36.25
2018-07-03T15:53:32.935Z,35.64
2018-07-03T15:56:01.981Z,35.22
2018-07-03T15:58:31.196Z,35.07
2018-07-03T16:01:00.281Z,35.10
2018-07-03T16:05:42.631Z,35.41
2018-07-03T16:08:38.900Z,35.25
2018-07-03T16:11:07.937Z,35.78
2018-07-03T16:13:37.066Z,35.73
2018-07-03T16:16:06.117Z,36.02
2018-07-03T16:18:35.633Z,36.97
2018-07-03T16:21:05.339Z,37.31
2018-07-03T16:23:34.503Z,36.43
2018-07-03T16:26:04.358Z,35.30
2018-07-03T16:28:38.061Z,37.13
2018-07-03T16:31:23.048Z,36.59
2018-07-03T16:33:58.670Z,36.19
2018-07-03T16:36:45.054Z,35.35
2018-07-03T16:39:15.960Z,35.11
2018-07-03T16:41:46.633Z,35.03
2018-07-03T16:44:16.636Z,35.30
2018-07-03T16:46:45.805Z,35.41
2018-07-03T16:49:14.833Z,35.51
2018-07-03T16:51:43.971Z,36.04
2018-07-03T16:54:13.114Z,36.26
2018-07-03T16:56:42.214Z,36.40
2018-07-03T16:59:11.543Z,36.10
2018-07-03T17:01:40.610Z,36.38
2018-07-03T17:04:09.720Z,36.35
2018-07-03T17:06:39.476Z,36.64
2018-07-03T17:09:10.340Z,35.74
2018-07-03T17:11:39.664Z,35.61
2018-07-03T17:14:10.258Z,34.66
2018-07-03T17:16:39.749Z,34.08
2018-07-03T17:19:14.151Z,33.77
2018-07-03T17:21:43.266Z,33.59
2018-07-03T17:24:12.841Z,33.35
2018-07-03T17:26:41.901Z,33.15
2018-07-03T17:29:11.044Z,33.03
2018-07-03T17:31:40.126Z,33.08
2018-07-03T17:34:09.195Z,32.99
2018-07-03T17:36:38.306Z,32.93
2018-07-03T17:39:14.555Z,32.47
2018-07-03T17:41:55.378Z,32.52
2018-07-03T17:44:35.082Z,32.38
2018-07-03T17:47:04.251Z,32.33
2018-07-03T17:49:33.352Z,32.31
2018-07-03T17:52:02.563Z,32.36
2018-07-03T17:54:31.659Z,32.47
2018-07-03T17:57:00.722Z,32.15
2018-07-03T17:59:29.917Z,32.03
2018-07-03T18:01:59.091Z,31.94
2018-07-03T18:04:28.166Z,31.81
2018-07-03T18:06:57.335Z,31.83
2018-07-03T18:09:26.520Z,31.98
2018-07-03T18:11:55.669Z,32.18
2018-07-03T18:14:25.126Z,32.26
2018-07-03T18:16:54.226Z,31.84
2018-07-03T18:19:28.408Z,31.62
2018-07-03T18:21:57.509Z,31.61
2018-07-03T18:24:26.574Z,31.74
2018-07-03T18:26:55.748Z,32.00
2018-07-03T18:29:25.285Z,31.77
2018-07-03T18:31:54.329Z,31.38
2018-07-03T18:34:23.728Z,31.10
2018-07-03T18:36:52.850Z,31.05
2018-07-03T18:39:21.980Z,31.01
2018-07-03T18:41:51.218Z,30.96
2018-07-03T18:44:20.729Z,30.81
2018-07-03T18:46:49.827Z,30.78
2018-07-03T18:49:18.863Z,30.60
2018-07-03T18:51:47.961Z,30.66
2018-07-03T18:54:17.064Z,30.86
2018-07-03T18:56:46.347Z,30.93
2018-07-03T18:59:15.424Z,30.98
2018-07-03T19:01:44.600Z,30.98
2018-07-03T19:04:13.874Z,31.04
2018-07-03T19:06:43.123Z,31.00
2018-07-03T19:09:12.243Z,30.92
2018-07-03T19:11:41.358Z,30.84
2018-07-03T19:14:10.455Z,30.82
2018-07-03T19:16:39.594Z,30.70
2018-07-03T19:19:08.760Z,30.54
2018-07-03T19:21:37.915Z,30.44
2018-07-03T19:24:07.125Z,30.43
2018-07-03T19:26:36.201Z,30.40
2018-07-03T19:29:05.442Z,30.37
2018-07-03T19:31:34.578Z,30.29
2018-07-03T19:34:03.773Z,30.01
2018-07-03T19:36:32.928Z,29.74
2018-07-03T19:39:02.121Z,29.74
2018-07-03T19:41:31.223Z,29.66
2018-07-03T19:44:00.383Z,29.61
2018-07-03T19:46:29.514Z,29.63
2018-07-03T19:48:58.625Z,29.69
2018-07-03T19:51:27.786Z,29.76
2018-07-03T19:53:56.964Z,29.72
2018-07-03T19:56:26.189Z,29.52
2018-07-03T19:58:55.256Z,29.35
2018-07-03T20:01:24.370Z,29.16
2018-07-03T20:03:54.006Z,28.95
2018-07-03T20:06:23.132Z,28.84
2018-07-03T20:08:52.436Z,28.95
2018-07-03T20:11:21.550Z,29.00
2018-07-03T20:13:50.786Z,28.92
2018-07-03T20:16:19.875Z,28.88
2018-07-03T20:18:49.368Z,28.37
2018-07-03T20:21:18.414Z,28.07
2018-07-03T20:23:47.797Z,27.77
2018-07-03T20:26:16.921Z,27.41
2018-07-03T20:28:46.054Z,27.13
2018-07-03T20:31:15.103Z,27.01
2018-07-03T20:33:45.172Z,27.07
2018-07-03T20:36:14.602Z,26.91
2018-07-03T20:38:43.813Z,26.68
2018-07-03T20:41:12.944Z,26.65
2018-07-03T20:43:42.662Z,26.56
2018-07-03T20:46:11.808Z,26.36
2018-07-03T20:48:40.879Z,26.18
2018-07-03T20:51:10.739Z,25.96
2018-07-03T20:53:39.803Z,26.07
2018-07-03T20:56:08.955Z,26.21
2018-07-03T20:58:38.168Z,26.45
2018-07-03T21:01:07.375Z,26.47
2018-07-03T21:03:36.459Z,26.38
2018-07-03T21:06:05.950Z,26.30
2018-07-03T21:08:34.922Z,26.08
2018-07-03T21:11:04.252Z,25.99
2018-07-03T21:13:33.301Z,25.80
2018-07-03T21:16:02.460Z,25.76
2018-07-03T21:18:32.150Z,25.74
2018-07-03T21:21:01.363Z,25.70
2018-07-03T21:23:30.444Z,25.44
2018-07-03T21:25:59.578Z,25.34
2018-07-03T21:28:28.766Z,25.35
2018-07-03T21:30:57.811Z,25.44
2018-07-03T21:33:26.909Z,25.38
2018-07-03T21:35:56.019Z,25.29
2018-07-03T21:38:25.148Z,25.38
2018-07-03T21:40:54.242Z,25.44
2018-07-03T21:43:23.268Z,25.44
2018-07-03T21:45:52.342Z,25.50
2018-07-03T21:48:21.448Z,25.58
2018-07-03T21:50:50.537Z,25.62
2018-07-03T21:53:19.614Z,25.37
2018-07-03T21:55:48.761Z,25.25
2018-07-03T21:58:17.882Z,25.19
2018-07-03T22:00:46.962Z,25.07
2018-07-03T22:03:15.994Z,24.90
2018-07-03T22:05:45.115Z,24.84
2018-07-03T22:08:14.168Z,24.71
2018-07-03T22:10:43.270Z,24.47
2018-07-03T22:13:12.380Z,24.46
2018-07-03T22:15:41.454Z,24.09
2018-07-03T22:18:10.510Z,23.79
2018-07-03T22:20:39.565Z,23.92
2018-07-03T22:23:08.606Z,23.79
2018-07-03T22:25:37.660Z,23.71
2018-07-03T22:28:06.717Z,23.82
2018-07-03T22:30:35.769Z,23.72
2018-07-03T22:33:04.803Z,23.62
2018-07-03T22:35:33.882Z,23.70
2018-07-03T22:38:02.928Z,23.64
2018-07-03T22:40:32.165Z,23.39
2018-07-03T22:43:01.251Z,23.31
2018-07-03T22:45:31.305Z,23.31
2018-07-03T22:48:00.341Z,23.55
2018-07-03T22:50:29.424Z,23.54
2018-07-03T22:52:58.674Z,23.46
2018-07-03T22:55:27.736Z,23.58
2018-07-03T22:57:56.742Z,23.63
2018-07-03T23:00:25.896Z,23.53
2018-07-03T23:02:54.980Z,23.39
2018-07-03T23:05:24.021Z,23.30
2018-07-03T23:07:53.179Z,23.26
2018-07-03T23:10:22.161Z,23.23
2018-07-03T23:12:51.255Z,23.20
2018-07-03T23:15:20.289Z,23.26
2018-07-03T23:17:49.383Z,23.28
2018-07-03T23:20:18.458Z,23.09
2018-07-03T23:22:47.510Z,22.98
2018-07-03T23:25:16.566Z,22.88
2018-07-03T23:27:45.597Z,22.89
2018-07-03T23:30:15.131Z,22.65
2018-07-03T23:32:44.244Z,22.60
2018-07-03T23:35:13.275Z,22.68
2018-07-03T23:37:42.372Z,22.78
2018-07-03T23:40:11.446Z,22.69
2018-07-03T23:42:40.594Z,22.53
2018-07-03T23:45:09.637Z,22.42
2018-07-03T23:47:49.860Z,22.48
2018-07-03T23:50:30.270Z,22.56
2018-07-03T23:53:10.629Z,22.41
2018-07-03T23:55:51.201Z,22.31
2018-07-03T23:58:31.570Z,22.15
